Time;durP1;ratioP1;P1;durP2;ratioP2;P2;SDS_P1;SDS_P2;PMS_P1;PMS_P2;Temp;Humidity;BMP_temperature;BMP_pressure;BME280_temperature;BME280_humidity;BME280_pressure;Samples;Min_cycle;Max_cycle;Signal;HPM_P1;HPM_P2
2021/03/18 00:01:22;;;;;;;13.20;4.43;;;2.00;99.10;;;;;;5065832;28;20024;-39
2021/03/18 00:03:50;;;;;;;9.73;4.47;;;2.00;99.10;;;;;;5063394;28;20028;-36
2021/03/18 00:06:16;;;;;;;12.88;4.10;;;2.00;99.10;;;;;;5064794;28;20452;-35
2021/03/18 00:08:44;;;;;;;8.05;3.80;;;2.00;99.30;;;;;;5066161;28;20056;-33
2021/03/18 00:11:19;;;;;;;7.90;3.65;;;1.90;99.10;;;;;;5065649;28;20048;-37
2021/03/18 00:13:45;;;;;;;10.00;3.38;;;1.90;99.10;;;;;;5065483;28;20167;-35
2021/03/18 00:16:11;;;;;;;10.50;4.18;;;1.90;99.10;;;;;;5065381;28;20224;-35
2021/03/18 00:18:43;;;;;;;8.52;3.50;;;1.80;99.10;;;;;;5065695;28;20211;-36
2021/03/18 00:21:09;;;;;;;7.18;3.60;;;1.80;99.20;;;;;;5064654;28;20032;-36
2021/03/18 00:23:35;;;;;;;7.07;3.65;;;1.80;99.20;;;;;;5065213;28;20041;-35
2021/03/18 00:26:05;;;;;;;5.13;2.70;;;1.80;99.20;;;;;;5065624;28;20344;-39
2021/03/18 00:28:30;;;;;;;7.13;3.20;;;1.80;99.20;;;;;;5064840;28;20024;-37
2021/03/18 00:30:56;;;;;;;8.13;3.53;;;1.80;99.20;;;;;;5065374;28;20422;-39
2021/03/18 00:33:22;;;;;;;4.97;2.60;;;1.80;99.20;;;;;;5065277;28;20353;-37
2021/03/18 00:35:48;;;;;;;5.82;3.25;;;1.80;99.20;;;;;;5064315;28;20067;-36
2021/03/18 00:38:14;;;;;;;7.25;3.53;;;1.80;99.20;;;;;;5065224;28;20136;-36
2021/03/18 00:40:51;;;;;;;5.97;2.92;;;1.80;99.30;;;;;;5064711;28;20120;-34
2021/03/18 00:43:19;;;;;;;6.07;3.90;;;1.80;99.20;;;;;;5064806;28;20066;-37
2021/03/18 00:45:47;;;;;;;9.55;4.50;;;1.80;99.30;;;;;;5064743;28;20551;-33
2021/03/18 00:48:14;;;;;;;11.52;4.22;;;1.80;99.30;;;;;;5064627;28;20048;-38
2021/03/18 00:50:48;;;;;;;8.52;4.32;;;1.70;99.30;;;;;;5063876;28;20025;-33
2021/03/18 00:53:17;;;;;;;8.98;3.95;;;1.70;99.30;;;;;;5053371;28;20059;-37
2021/03/18 00:55:43;;;;;;;7.47;3.92;;;1.70;99.30;;;;;;5064509;28;20043;-37
2021/03/18 00:58:09;;;;;;;10.57;4.63;;;1.70;99.30;;;;;;5064445;28;20024;-38
2021/03/18 01:00:47;;;;;;;9.65;4.07;;;1.70;99.30;;;;;;5064486;28;20604;-37
2021/03/18 01:03:19;;;;;;;9.90;3.60;;;1.70;99.30;;;;;;5061586;28;20020;-35
2021/03/18 01:05:49;;;;;;;9.40;4.03;;;1.70;99.30;;;;;;5064399;28;20052;-39
2021/03/18 01:08:16;;;;;;;12.43;4.55;;;1.70;99.30;;;;;;5064184;28;20467;-38
2021/03/18 01:10:46;;;;;;;15.52;4.95;;;1.60;99.30;;;;;;5064334;28;20025;-38
2021/03/18 01:13:18;;;;;;;12.20;4.68;;;1.70;99.30;;;;;;5063993;28;20020;-34
2021/03/18 01:15:51;;;;;;;15.80;4.97;;;1.70;99.40;;;;;;5064707;28;20028;-37
2021/03/18 01:18:19;;;;;;;13.30;4.53;;;1.70;99.40;;;;;;5063888;28;20027;-36
2021/03/18 01:20:44;;;;;;;12.02;4.05;;;1.70;99.40;;;;;;5064346;28;20037;-32
2021/03/18 01:23:10;;;;;;;11.93;3.88;;;1.70;99.40;;;;;;5064107;28;20019;-34
2021/03/18 01:25:36;;;;;;;14.25;4.70;;;1.70;99.40;;;;;;5063793;28;20036;-36
2021/03/18 01:28:02;;;;;;;11.68;4.85;;;1.80;99.40;;;;;;5064319;28;20016;-38
2021/03/18 01:30:28;;;;;;;15.95;5.05;;;1.70;99.40;;;;;;5064052;28;20036;-34
2021/03/18 01:32:56;;;;;;;11.77;5.20;;;1.70;99.40;;;;;;5063830;28;20772;-35
2021/03/18 01:35:22;;;;;;;12.20;5.00;;;1.70;99.40;;;;;;5063960;28;20028;-37
2021/03/18 01:37:50;;;;;;;14.90;5.38;;;1.70;99.50;;;;;;5063729;28;20526;-36
2021/03/18 01:40:22;;;;;;;15.75;5.30;;;1.70;99.50;;;;;;5063900;28;20475;-38
2021/03/18 01:42:48;;;;;;;8.80;3.83;;;1.70;99.50;;;;;;5063870;28;20027;-37
2021/03/18 01:45:14;;;;;;;9.00;4.43;;;1.70;99.50;;;;;;5063597;28;20033;-37
2021/03/18 01:47:42;;;;;;;11.50;3.80;;;1.70;99.60;;;;;;5063605;28;20019;-38
2021/03/18 01:50:09;;;;;;;5.88;3.10;;;1.70;99.60;;;;;;5053261;28;20017;-37
2021/03/18 01:52:36;;;;;;;6.35;2.92;;;1.70;99.60;;;;;;5063200;28;20025;-37
2021/03/18 01:55:02;;;;;;;7.53;3.70;;;1.70;99.60;;;;;;5063560;28;20048;-36
2021/03/18 01:57:28;;;;;;;6.43;3.00;;;1.70;99.60;;;;;;5063932;28;20625;-36
2021/03/18 01:59:55;;;;;;;6.25;4.00;;;1.70;99.60;;;;;;5063536;28;20032;-38
2021/03/18 02:02:21;;;;;;;7.40;3.35;;;1.70;99.60;;;;;;5066473;28;20109;-36
2021/03/18 02:04:46;;;;;;;7.15;3.67;;;1.70;99.60;;;;;;5067540;28;20403;-33
2021/03/18 02:07:13;;;;;;;7.93;3.53;;;1.70;99.60;;;;;;5067667;28;20036;-38
2021/03/18 02:09:38;;;;;;;5.60;3.15;;;1.70;99.60;;;;;;5067235;28;20460;-36
2021/03/18 02:12:04;;;;;;;7.55;3.15;;;1.70;99.60;;;;;;5067938;28;20044;-38
2021/03/18 02:14:30;;;;;;;9.32;3.72;;;1.70;99.60;;;;;;5067566;28;20169;-38
2021/03/18 02:16:58;;;;;;;9.25;3.42;;;1.70;99.60;;;;;;5067888;28;20013;-38
2021/03/18 02:19:52;;;;;;;7.85;4.32;;;1.80;99.60;;;;;;5067226;28;20607;-37
2021/03/18 02:23:06;;;;;;;10.82;5.65;;;1.80;99.50;;;;;;5067735;28;20028;-37
2021/03/18 02:25:33;;;;;;;;;;;1.70;99.50;;;;;;5067935;28;20044;-36
2021/03/18 02:28:33;;;;;;;13.43;5.03;;;1.70;99.60;;;;;;5067975;28;19915;-38
2021/03/18 02:31:06;;;;;;;16.00;5.60;;;1.70;99.60;;;;;;5067500;28;20017;-38
2021/03/18 02:34:09;;;;;;;11.80;5.53;;;1.70;99.70;;;;;;5067448;28;20526;-36
2021/03/18 02:36:45;;;;;;;8.43;4.78;;;1.70;99.70;;;;;;5067209;28;20036;-37
2021/03/18 02:39:22;;;;;;;11.32;5.35;;;1.60;99.60;;;;;;5067654;28;20143;-35
2021/03/18 02:41:56;;;;;;;11.68;4.55;;;1.70;99.60;;;;;;5067138;28;20016;-35
2021/03/18 02:44:25;;;;;;;11.40;4.57;;;1.70;99.60;;;;;;5067229;28;20107;-34
2021/03/18 02:47:05;;;;;;;10.80;4.93;;;1.70;99.70;;;;;;5067554;28;20024;-38
2021/03/18 02:49:35;;;;;;;8.90;4.45;;;1.70;99.60;;;;;;5066506;28;20601;-38
2021/03/18 02:52:03;;;;;;;7.85;3.35;;;1.70;99.60;;;;;;5067193;28;20036;-39
2021/03/18 02:54:32;;;;;;;5.72;4.00;;;1.70;99.50;;;;;;5067132;28;20045;-39
2021/03/18 02:57:01;;;;;;;6.25;3.20;;;1.70;99.50;;;;;;5066809;28;20047;-35
2021/03/18 02:59:31;;;;;;;7.40;3.67;;;1.70;99.50;;;;;;5067200;28;20032;-37
2021/03/18 03:01:58;;;;;;;7.15;2.70;;;1.70;99.60;;;;;;5066100;28;20039;-39
2021/03/18 03:04:25;;;;;;;4.68;3.20;;;1.70;99.50;;;;;;5067166;28;20649;-39
2021/03/18 03:06:55;;;;;;;7.57;2.88;;;1.70;99.60;;;;;;5066579;28;20052;-37
2021/03/18 03:09:24;;;;;;;4.18;3.20;;;1.80;99.60;;;;;;5066377;28;20029;-35
2021/03/18 03:11:50;;;;;;;4.43;2.67;;;1.80;99.60;;;;;;5066309;28;20452;-38
2021/03/18 03:14:18;;;;;;;4.05;2.60;;;1.80;99.60;;;;;;5066688;28;20040;-37
2021/03/18 03:16:45;;;;;;;6.65;2.90;;;1.80;99.50;;;;;;5066701;28;20044;-38
2021/03/18 03:19:12;;;;;;;4.50;2.65;;;1.80;99.50;;;;;;5066973;28;20115;-36
2021/03/18 03:21:37;;;;;;;5.18;3.00;;;1.90;99.50;;;;;;5066531;28;20021;-36
2021/03/18 03:24:07;;;;;;;7.30;3.45;;;1.90;99.50;;;;;;5066428;28;20047;-36
2021/03/18 03:26:33;;;;;;;8.73;3.38;;;1.90;99.50;;;;;;5066715;28;20023;-37
2021/03/18 03:29:00;;;;;;;6.82;3.30;;;1.90;99.40;;;;;;5066595;28;20460;-36
2021/03/18 03:31:38;;;;;;;10.10;3.70;;;1.90;99.40;;;;;;5066103;28;20024;-38
2021/03/18 03:34:08;;;;;;;6.22;3.03;;;1.90;99.40;;;;;;5066600;28;20071;-34
2021/03/18 03:36:34;;;;;;;4.88;2.92;;;1.90;99.40;;;;;;5066059;28;20040;-35
2021/03/18 03:39:00;;;;;;;8.70;2.95;;;1.90;99.40;;;;;;5066333;28;20047;-33
2021/03/18 03:41:25;;;;;;;5.28;2.72;;;1.80;99.40;;;;;;5066248;28;20032;-38
2021/03/18 03:43:51;;;;;;;7.38;3.05;;;1.90;99.40;;;;;;5066422;28;20036;-38
2021/03/18 03:46:17;;;;;;;8.52;3.40;;;1.80;99.40;;;;;;5065588;28;20029;-40
2021/03/18 03:48:43;;;;;;;4.55;2.70;;;1.80;99.40;;;;;;5065939;28;20032;-36
2021/03/18 03:51:11;;;;;;;5.30;2.50;;;1.90;99.40;;;;;;5065745;28;20058;-37
2021/03/18 03:53:43;;;;;;;5.38;2.60;;;1.90;99.40;;;;;;5065729;28;20041;-37
2021/03/18 03:56:27;;;;;;;4.25;3.00;;;1.90;99.40;;;;;;5066101;28;20106;-39
2021/03/18 03:58:57;;;;;;;5.03;2.75;;;1.90;99.40;;;;;;5064835;28;20275;-39
2021/03/18 04:01:38;;;;;;;7.97;2.83;;;1.90;99.30;;;;;;5066228;28;20828;-37
2021/03/18 04:04:11;;;;;;;3.40;2.42;;;1.90;99.30;;;;;;5064862;28;20123;-35
2021/03/18 04:06:39;;;;;;;7.25;2.72;;;1.90;99.30;;;;;;5065630;28;20032;-38
2021/03/18 04:09:07;;;;;;;6.85;2.60;;;1.90;99.30;;;;;;5065941;28;20031;-36
2021/03/18 04:11:37;;;;;;;5.60;2.80;;;1.80;99.30;;;;;;5065779;28;20101;-38
2021/03/18 04:14:09;;;;;;;6.20;2.35;;;1.80;99.20;;;;;;5065075;28;20217;-38
2021/03/18 04:16:37;;;;;;;6.15;2.53;;;1.80;99.20;;;;;;5065601;28;20067;-33
2021/03/18 04:19:04;;;;;;;3.38;2.55;;;1.70;99.20;;;;;;5065551;28;20071;-35
2021/03/18 04:21:32;;;;;;;3.63;2.50;;;1.60;99.20;;;;;;5045715;28;20071;-38
2021/03/18 04:24:01;;;;;;;6.30;2.75;;;1.60;99.20;;;;;;5059305;28;20448;-37
2021/03/18 04:26:29;;;;;;;7.30;2.80;;;1.50;99.20;;;;;;5065116;28;20028;-37
2021/03/18 04:28:54;;;;;;;13.63;4.80;;;1.50;99.30;;;;;;5064752;28;20411;-37
2021/03/18 04:31:22;;;;;;;6.38;3.70;;;1.50;99.50;;;;;;5065472;28;20028;-38
2021/03/18 04:33:48;;;;;;;7.32;3.25;;;1.50;99.50;;;;;;5064317;28;20027;-38
2021/03/18 04:36:14;;;;;;;8.98;3.70;;;1.50;99.50;;;;;;5065216;28;20032;-35
2021/03/18 04:38:40;;;;;;;6.30;3.25;;;1.50;99.50;;;;;;5065049;28;20126;-37
2021/03/18 04:41:06;;;;;;;7.03;3.38;;;1.60;99.60;;;;;;5064337;28;20109;-36
2021/03/18 04:43:37;;;;;;;6.57;3.47;;;1.60;99.60;;;;;;5064788;28;20015;-37
2021/03/18 04:46:06;;;;;;;8.85;3.40;;;1.70;99.60;;;;;;5054585;28;20501;-34
2021/03/18 04:48:33;;;;;;;6.68;2.58;;;1.70;99.50;;;;;;5064273;28;20024;-36
2021/03/18 04:50:58;;;;;;;6.55;3.08;;;1.70;99.40;;;;;;5064539;28;20031;-37
2021/03/18 04:53:24;;;;;;;6.18;2.80;;;1.80;99.40;;;;;;5064275;28;20052;-35
2021/03/18 04:55:50;;;;;;;4.68;2.90;;;1.80;99.50;;;;;;5064526;28;20151;-38
2021/03/18 04:58:20;;;;;;;6.68;3.20;;;1.80;99.40;;;;;;5064618;28;20044;-38
2021/03/18 05:00:47;;;;;;;5.60;2.97;;;1.90;99.40;;;;;;5064110;28;20032;-34
2021/03/18 05:03:14;;;;;;;6.47;3.47;;;1.90;99.40;;;;;;5064692;28;20043;-35
2021/03/18 05:05:41;;;;;;;6.50;3.00;;;2.00;99.40;;;;;;5064348;28;20483;-38
2021/03/18 05:08:08;;;;;;;6.97;3.30;;;2.00;99.40;;;;;;5064856;28;20016;-38
2021/03/18 05:10:35;;;;;;;6.75;3.70;;;2.10;99.40;;;;;;5064043;28;20071;-36
2021/03/18 05:13:08;;;;;;;7.63;3.08;;;2.10;99.30;;;;;;5064352;28;20025;-35
2021/03/18 05:15:36;;;;;;;7.45;3.58;;;2.20;99.30;;;;;;5064059;28;20065;-38
2021/03/18 05:18:04;;;;;;;6.05;3.35;;;2.20;99.20;;;;;;5064560;28;20047;-36
2021/03/18 05:20:30;;;;;;;8.73;3.35;;;2.20;99.20;;;;;;5064392;28;20043;-37
2021/03/18 05:22:56;;;;;;;8.80;3.88;;;2.20;99.20;;;;;;5065241;28;20096;-38
2021/03/18 05:25:27;;;;;;;5.90;2.95;;;2.20;99.20;;;;;;5064066;28;20621;-38
2021/03/18 05:27:52;;;;;;;6.90;3.10;;;2.20;99.10;;;;;;5065149;28;20165;-36
2021/03/18 05:30:19;;;;;;;8.38;3.05;;;2.20;99.10;;;;;;5064642;28;20203;-36
2021/03/18 05:32:46;;;;;;;6.80;3.53;;;2.20;99.10;;;;;;5065089;28;20025;-34
2021/03/18 05:35:12;;;;;;;4.60;2.80;;;2.20;99.10;;;;;;5064610;28;20393;-36
2021/03/18 05:37:40;;;;;;;4.97;2.92;;;2.20;99.10;;;;;;5064635;28;20047;-37
2021/03/18 05:40:13;;;;;;;4.20;3.10;;;2.20;99.10;;;;;;5064500;28;20028;-38
2021/03/18 05:42:39;;;;;;;5.10;3.55;;;2.20;99.10;;;;;;5064638;28;20029;-38
2021/03/18 05:45:08;;;;;;;6.68;3.35;;;2.20;99.10;;;;;;5064527;28;20142;-37
2021/03/18 05:47:34;;;;;;;4.38;2.85;;;2.20;99.10;;;;;;5063820;28;20154;-34
2021/03/18 05:50:05;;;;;;;7.57;3.10;;;2.20;99.10;;;;;;5064456;28;20128;-36
2021/03/18 05:52:35;;;;;;;4.70;2.65;;;2.20;99.10;;;;;;5063161;28;20502;-36
2021/03/18 05:55:01;;;;;;;7.18;3.78;;;2.20;99.10;;;;;;5064079;28;20044;-38
2021/03/18 05:57:27;;;;;;;3.63;2.72;;;2.20;99.10;;;;;;5063728;28;20044;-38
2021/03/18 05:59:56;;;;;;;4.03;2.88;;;2.20;99.10;;;;;;5063706;28;20036;-37
2021/03/18 06:02:22;;;;;;;4.25;3.05;;;2.20;99.10;;;;;;5063525;28;20559;-38
2021/03/18 06:04:47;;;;;;;3.97;3.42;;;2.20;99.10;;;;;;5063796;28;20041;-35
2021/03/18 06:07:13;;;;;;;5.93;3.42;;;2.20;99.10;;;;;;5063657;28;20161;-35
2021/03/18 06:09:39;;;;;;;5.82;3.80;;;2.20;99.10;;;;;;5063832;28;20066;-38
2021/03/18 06:12:05;;;;;;;4.43;3.33;;;2.20;99.10;;;;;;5063531;28;20506;-38
2021/03/18 06:14:33;;;;;;;7.10;3.33;;;2.30;99.10;;;;;;5063652;28;20115;-38
2021/03/18 06:16:59;;;;;;;6.70;3.55;;;2.30;99.10;;;;;;5064081;28;20153;-38
2021/03/18 06:19:26;;;;;;;5.53;3.17;;;2.30;99.10;;;;;;5063566;28;20029;-38
2021/03/18 06:21:53;;;;;;;7.13;3.05;;;2.30;99.10;;;;;;5063520;28;20025;-35
2021/03/18 06:24:23;;;;;;;6.72;2.90;;;2.40;99.10;;;;;;5063850;28;20044;-35
2021/03/18 06:26:49;;;;;;;3.25;2.95;;;2.40;99.10;;;;;;5063402;28;20467;-35
2021/03/18 06:29:36;;;;;;;5.70;2.88;;;2.40;99.10;;;;;;5063505;28;20069;-37
2021/03/18 06:32:21;;;;;;;6.13;3.30;;;2.40;99.10;;;;;;5063249;28;20016;-38
2021/03/18 06:34:55;;;;;;;3.45;2.90;;;2.40;99.00;;;;;;5053722;28;20032;-37
2021/03/18 06:37:32;;;;;;;8.50;3.60;;;2.50;99.00;;;;;;5063443;28;20503;-38
2021/03/18 06:40:16;;;;;;;3.78;3.28;;;2.50;99.00;;;;;;5053613;28;20035;-38
2021/03/18 06:42:52;;;;;;;3.97;3.15;;;2.50;99.00;;;;;;5063183;28;20048;-38
2021/03/18 06:45:19;;;;;;;5.05;3.08;;;2.60;98.90;;;;;;5063672;28;20036;-38
2021/03/18 06:47:53;;;;;;;7.28;2.95;;;2.60;98.90;;;;;;5064078;28;20047;-35
2021/03/18 06:50:41;;;;;;;4.85;2.90;;;2.60;98.90;;;;;;5066874;28;20044;-38
2021/03/18 06:53:19;;;;;;;4.88;2.75;;;2.60;99.00;;;;;;5066648;28;20029;-36
2021/03/18 06:55:45;;;;;;;4.82;3.28;;;2.70;99.00;;;;;;5065383;28;20467;-37
2021/03/18 06:58:17;;;;;;;5.57;3.10;;;2.70;98.90;;;;;;5066531;28;20120;-36
2021/03/18 07:00:46;;;;;;;5.00;3.38;;;2.80;98.90;;;;;;5063167;28;20131;-35
2021/03/18 07:03:29;;;;;;;4.35;2.80;;;2.80;98.90;;;;;;5064122;28;20020;-38
2021/03/18 07:05:56;;;;;;;4.75;3.22;;;2.90;98.80;;;;;;5062987;28;20029;-34
2021/03/18 07:08:27;;;;;;;7.43;3.15;;;2.90;98.80;;;;;;5062152;28;20111;-39
2021/03/18 07:10:53;;;;;;;4.45;3.05;;;2.90;98.80;;;;;;5055630;28;20024;-40
2021/03/18 07:13:25;;;;;;;6.22;3.60;;;3.00;98.80;;;;;;5066498;28;20028;-38
2021/03/18 07:15:52;;;;;;;6.32;3.50;;;3.10;98.80;;;;;;5065609;28;20024;-39
2021/03/18 07:18:18;;;;;;;5.18;3.10;;;3.10;98.80;;;;;;5066072;28;20040;-39
2021/03/18 07:21:06;;;;;;;6.00;3.72;;;3.20;98.70;;;;;;5063659;28;20032;-33
2021/03/18 07:23:45;;;;;;;6.97;3.50;;;3.30;98.70;;;;;;5063497;28;20112;-35
2021/03/18 07:26:23;;;;;;;5.28;3.25;;;3.30;98.60;;;;;;5065765;28;20047;-39
2021/03/18 07:29:08;;;;;;;5.57;3.97;;;3.40;98.70;;;;;;5049874;28;20203;-38
2021/03/18 07:31:34;;;;;;;4.45;2.90;;;3.50;98.60;;;;;;5056522;28;20506;-38
2021/03/18 07:33:59;;;;;;;6.45;3.35;;;3.60;98.60;;;;;;5066492;28;20468;-37
2021/03/18 07:36:25;;;;;;;6.70;3.50;;;3.70;98.60;;;;;;5064428;28;20094;-38
2021/03/18 07:38:52;;;;;;;9.00;4.03;;;3.70;98.50;;;;;;5064562;28;20032;-38
2021/03/18 07:41:19;;;;;;;8.25;4.30;;;3.80;98.40;;;;;;5064372;28;20043;-38
2021/03/18 07:43:46;;;;;;;12.13;4.93;;;3.90;98.40;;;;;;5064034;28;20033;-37
2021/03/18 07:46:14;;;;;;;9.88;3.72;;;3.90;98.40;;;;;;5064023;28;20043;-38
2021/03/18 07:48:43;;;;;;;12.80;5.35;;;4.00;98.40;;;;;;5065047;28;20031;-36
2021/03/18 07:51:12;;;;;;;12.27;5.30;;;4.10;98.40;;;;;;5065729;28;20165;-41
2021/03/18 07:53:39;;;;;;;10.02;4.30;;;4.20;98.30;;;;;;5063066;28;20392;-35
2021/03/18 07:56:12;;;;;;;12.00;5.15;;;4.20;98.30;;;;;;5064491;28;20081;-35
2021/03/18 07:58:45;;;;;;;10.50;4.30;;;4.30;98.30;;;;;;5065374;28;20108;-42
2021/03/18 08:01:29;;;;;;;12.73;5.68;;;4.30;98.30;;;;;;5065972;28;20489;-33
2021/03/18 08:03:55;;;;;;;13.63;6.22;;;4.40;98.30;;;;;;5046460;28;20037;-37
2021/03/18 08:06:39;;;;;;;12.05;5.05;;;4.50;98.20;;;;;;5059994;28;20086;-32
2021/03/18 08:09:25;;;;;;;20.63;7.18;;;4.50;98.20;;;;;;5064718;28;20033;-35
2021/03/18 08:11:52;;;;;;;18.67;6.97;;;4.50;98.40;;;;;;5061296;28;20036;-34
2021/03/18 08:14:23;;;;;;;16.73;7.45;;;4.50;98.50;;;;;;5065776;28;20127;-37
2021/03/18 08:16:50;;;;;;;9.90;5.60;;;4.50;98.60;;;;;;5065562;28;20060;-33
2021/03/18 08:19:18;;;;;;;10.77;5.88;;;4.40;98.60;;;;;;5065843;28;20040;-37
2021/03/18 08:21:44;;;;;;;12.70;6.07;;;4.50;98.60;;;;;;5065895;28;20035;-38
2021/03/18 08:24:12;;;;;;;18.10;6.93;;;4.50;98.80;;;;;;5065178;28;20036;-39
2021/03/18 08:26:43;;;;;;;13.07;6.28;;;4.50;98.90;;;;;;5065349;28;20035;-35
2021/03/18 08:29:11;;;;;;;15.50;6.28;;;4.50;98.90;;;;;;5065231;28;20464;-38
2021/03/18 08:31:59;;;;;;;12.43;5.90;;;4.50;98.90;;;;;;5065358;28;20381;-38
2021/03/18 08:34:44;;;;;;;15.00;6.65;;;4.60;99.00;;;;;;5065336;28;20024;-37
2021/03/18 08:37:11;;;;;;;8.63;5.45;;;4.70;99.10;;;;;;5062412;28;20036;-35
2021/03/18 08:39:42;;;;;;;13.52;5.97;;;4.80;99.00;;;;;;5064396;28;20082;-39
2021/03/18 08:42:28;;;;;;;13.85;5.30;;;4.90;99.00;;;;;;5064777;28;20595;-40
2021/03/18 08:44:55;;;;;;;9.95;5.07;;;5.10;98.90;;;;;;5058874;28;20063;-36
2021/03/18 08:47:21;;;;;;;9.50;4.80;;;5.20;98.70;;;;;;5063759;28;20085;-39
2021/03/18 08:49:47;;;;;;;12.07;5.00;;;5.40;98.60;;;;;;5066452;28;20456;-36
2021/03/18 08:52:34;;;;;;;10.80;5.30;;;5.50;98.50;;;;;;5065390;28;20043;-38
2021/03/18 08:55:00;;;;;;;8.77;5.03;;;5.50;98.40;;;;;;5059973;28;20052;-38
2021/03/18 08:57:31;;;;;;;17.55;5.90;;;5.60;98.30;;;;;;5064677;28;20041;-36
2021/03/18 09:00:11;;;;;;;13.30;5.47;;;5.70;98.30;;;;;;5058506;28;20104;-38
2021/03/18 09:02:38;;;;;;;12.07;5.70;;;5.80;98.20;;;;;;5063649;28;20017;-39
2021/03/18 09:05:14;;;;;;;9.35;5.28;;;5.90;98.20;;;;;;5063498;28;20117;-36
2021/03/18 09:07:42;;;;;;;10.50;5.70;;;6.00;98.20;;;;;;5063573;28;20070;-38
2021/03/18 09:10:16;;;;;;;17.85;5.93;;;6.00;98.10;;;;;;5063897;28;20107;-39
2021/03/18 09:12:53;;;;;;;15.27;6.60;;;6.20;98.00;;;;;;5062744;28;20164;-37
2021/03/18 09:15:33;;;;;;;13.38;5.95;;;6.20;98.00;;;;;;5064093;28;20024;-38
2021/03/18 09:18:23;;;;;;;15.77;5.97;;;6.30;98.00;;;;;;5063598;28;20037;-37
2021/03/18 09:20:58;;;;;;;10.65;5.10;;;6.30;97.90;;;;;;5064628;28;20036;-34
2021/03/18 09:23:33;;;;;;;14.95;6.15;;;6.40;97.90;;;;;;5064364;28;20020;-39
2021/03/18 09:26:00;;;;;;;13.55;5.35;;;6.50;97.90;;;;;;5065216;28;20043;-37
2021/03/18 09:28:32;;;;;;;15.23;4.80;;;6.50;97.80;;;;;;5064605;28;20094;-38
2021/03/18 09:30:58;;;;;;;13.32;5.15;;;6.60;97.80;;;;;;5064595;28;20025;-38
2021/03/18 09:33:37;;;;;;;16.08;5.53;;;6.60;97.80;;;;;;5063962;28;20093;-37
2021/03/18 09:36:14;;;;;;;21.38;5.97;;;6.70;97.70;;;;;;5062809;28;20031;-38
2021/03/18 09:38:40;;;;;;;18.33;6.70;;;6.80;97.50;;;;;;5064169;28;20403;-39
2021/03/18 09:41:07;;;;;;;15.05;6.00;;;6.80;97.50;;;;;;5061574;28;20112;-38
2021/03/18 09:43:33;;;;;;;15.27;4.93;;;6.90;97.60;;;;;;5063177;28;20024;-37
2021/03/18 09:46:04;;;;;;;14.02;5.30;;;7.00;97.60;;;;;;5063262;28;20054;-37
2021/03/18 09:48:38;;;;;;;15.73;5.22;;;7.10;97.60;;;;;;5063984;28;20375;-40
2021/03/18 09:51:11;;;;;;;17.90;6.40;;;7.20;97.50;;;;;;5063949;28;20027;-38
2021/03/18 09:53:41;;;;;;;23.70;6.88;;;7.30;97.20;;;;;;5062794;28;20066;-39
2021/03/18 09:56:09;;;;;;;32.28;7.57;;;7.30;97.00;;;;;;5064052;28;20047;-38
2021/03/18 09:58:38;;;;;;;29.33;6.97;;;7.20;96.40;;;;;;5063488;28;20112;-39
2021/03/18 10:01:18;;;;;;;14.70;5.40;;;7.10;96.80;;;;;;5060518;28;20557;-37
2021/03/18 10:03:59;;;;;;;22.42;5.65;;;7.10;97.10;;;;;;5062847;28;20388;-37
2021/03/18 10:06:39;;;;;;;19.80;6.30;;;7.20;97.10;;;;;;5061654;28;20055;-37
2021/03/18 10:09:25;;;;;;;27.02;8.07;;;7.30;97.00;;;;;;5063819;28;20111;-35
2021/03/18 10:11:53;;;;;;;16.00;5.78;;;7.40;96.50;;;;;;5056607;28;20070;-36
2021/03/18 10:14:24;;;;;;;20.48;6.15;;;7.40;96.70;;;;;;5063581;28;20112;-37
2021/03/18 10:16:50;;;;;;;19.33;6.82;;;7.50;96.90;;;;;;5063832;28;20017;-36
2021/03/18 10:19:18;;;;;;;30.80;8.00;;;7.60;96.60;;;;;;5063255;28;20048;-37
2021/03/18 10:21:45;;;;;;;23.98;6.55;;;7.60;96.00;;;;;;5061401;28;20036;-36
2021/03/18 10:24:13;;;;;;;22.35;7.50;;;7.60;96.10;;;;;;5067510;28;20033;-35
2021/03/18 10:26:39;;;;;;;23.40;8.85;;;7.60;96.10;;;;;;5067626;28;20082;-35
2021/03/18 10:29:06;;;;;;;21.58;6.93;;;7.50;96.10;;;;;;5067663;28;20139;-38
2021/03/18 10:31:34;;;;;;;27.00;7.78;;;7.50;96.00;;;;;;5067041;28;20055;-37
2021/03/18 10:34:02;;;;;;;21.75;6.50;;;7.40;95.90;;;;;;5067424;28;20676;-39
2021/03/18 10:36:46;;;;;;;20.52;6.97;;;7.50;96.20;;;;;;5067368;28;20105;-39
2021/03/18 10:39:13;;;;;;;30.10;7.15;;;7.70;96.30;;;;;;5066439;28;20197;-40
2021/03/18 10:41:50;;;;;;;28.15;7.07;;;7.80;94.90;;;;;;5067363;28;20108;-38
2021/03/18 10:44:17;;;;;;;23.55;6.80;;;7.90;94.60;;;;;;5047328;28;20047;-37
2021/03/18 10:46:43;;;;;;;24.63;6.97;;;8.00;94.30;;;;;;5060170;28;20078;-40
2021/03/18 10:49:11;;;;;;;27.55;7.82;;;8.00;94.60;;;;;;5067596;28;20085;-36
2021/03/18 10:51:51;;;;;;;27.13;7.70;;;8.10;94.50;;;;;;5062987;28;20036;-39
2021/03/18 10:54:23;;;;;;;21.98;6.60;;;8.10;94.10;;;;;;5061710;28;20056;-35
2021/03/18 10:56:50;;;;;;;24.02;6.50;;;8.20;94.30;;;;;;5063373;28;20570;-38
2021/03/18 10:59:20;;;;;;;21.85;5.63;;;8.20;94.00;;;;;;5067196;28;20098;-37
2021/03/18 11:01:46;;;;;;;20.60;5.30;;;8.20;94.20;;;;;;5066428;28;20028;-37
2021/03/18 11:04:12;;;;;;;21.05;6.25;;;8.20;94.40;;;;;;5060237;28;20440;-38
2021/03/18 11:06:48;;;;;;;18.00;5.82;;;8.20;94.10;;;;;;5067120;28;20581;-38
2021/03/18 11:09:15;;;;;;;13.27;4.18;;;8.30;94.40;;;;;;5066192;28;20032;-35
2021/03/18 11:11:57;;;;;;;15.80;5.20;;;8.30;94.50;;;;;;5065734;28;20585;-37
2021/03/18 11:14:24;;;;;;;16.17;4.70;;;8.40;94.60;;;;;;5065094;28;20042;-38
2021/03/18 11:17:01;;;;;;;15.35;5.55;;;8.40;94.60;;;;;;5066005;28;20360;-38
2021/03/18 11:19:27;;;;;;;21.55;6.57;;;8.50;94.60;;;;;;5066487;28;20111;-38
2021/03/18 11:22:02;;;;;;;19.08;5.45;;;8.60;93.30;;;;;;5066434;28;20048;-39
2021/03/18 11:24:28;;;;;;;19.45;5.18;;;8.50;93.30;;;;;;5067132;28;20105;-39
2021/03/18 11:27:01;;;;;;;16.17;5.15;;;8.40;93.00;;;;;;5067942;28;20040;-36
2021/03/18 11:29:33;;;;;;;24.73;6.28;;;8.40;93.40;;;;;;5062309;28;20040;-38
2021/03/18 11:32:01;;;;;;;25.05;6.00;;;8.30;93.70;;;;;;5066942;28;20331;-38
2021/03/18 11:34:32;;;;;;;22.25;6.65;;;8.30;92.40;;;;;;5067064;28;20020;-37
2021/03/18 11:37:06;;;;;;;14.93;4.45;;;8.20;92.70;;;;;;5066894;28;20035;-38
2021/03/18 11:39:32;;;;;;;19.52;5.03;;;8.20;93.00;;;;;;5066796;28;20090;-36
2021/03/18 11:41:59;;;;;;;21.98;7.00;;;8.20;92.90;;;;;;5066565;28;20444;-36
2021/03/18 11:44:28;;;;;;;20.17;5.18;;;8.20;92.80;;;;;;5066175;28;20043;-34
2021/03/18 11:47:02;;;;;;;23.80;6.93;;;8.20;91.90;;;;;;5047156;28;20029;-36
2021/03/18 11:49:28;;;;;;;19.95;5.18;;;8.10;91.90;;;;;;5066223;28;20012;-38
2021/03/18 11:51:54;;;;;;;25.45;5.40;;;8.10;92.40;;;;;;5066757;28;20028;-38
2021/03/18 11:54:19;;;;;;;19.52;4.85;;;8.00;92.30;;;;;;5065599;28;20076;-38
2021/03/18 11:56:45;;;;;;;17.85;4.70;;;8.00;92.60;;;;;;5066214;28;20037;-39
2021/03/18 11:59:12;;;;;;;15.85;4.72;;;8.00;92.70;;;;;;5066483;28;20025;-38
2021/03/18 12:01:38;;;;;;;16.40;4.50;;;8.10;92.90;;;;;;5066148;28;20025;-36
2021/03/18 12:04:03;;;;;;;21.10;5.22;;;8.10;93.10;;;;;;5065359;28;20086;-38
2021/03/18 12:06:29;;;;;;;20.75;5.35;;;8.20;92.90;;;;;;5066787;28;20075;-38
2021/03/18 12:08:54;;;;;;;21.65;6.60;;;8.30;92.70;;;;;;5066062;28;20404;-37
2021/03/18 12:11:20;;;;;;;15.32;5.18;;;8.30;92.60;;;;;;5065719;28;20141;-38
2021/03/18 12:13:46;;;;;;;17.48;4.78;;;8.30;92.90;;;;;;5066157;28;20020;-38
2021/03/18 12:16:14;;;;;;;16.70;5.05;;;8.50;93.10;;;;;;5066105;28;20104;-38
2021/03/18 12:18:39;;;;;;;18.67;4.15;;;8.50;93.00;;;;;;5065438;28;20017;-37
2021/03/18 12:21:05;;;;;;;15.23;3.78;;;8.60;92.30;;;;;;5065886;28;20408;-36
2021/03/18 12:23:34;;;;;;;14.13;4.78;;;8.60;92.60;;;;;;5065668;28;20055;-38
2021/03/18 12:26:00;;;;;;;15.45;3.92;;;8.60;92.80;;;;;;5065435;28;20452;-36
2021/03/18 12:28:25;;;;;;;16.48;3.80;;;8.70;92.80;;;;;;5065906;28;20028;-39
2021/03/18 12:30:51;;;;;;;13.07;3.28;;;8.70;92.00;;;;;;5065524;28;20069;-36
2021/03/18 12:33:19;;;;;;;19.10;4.18;;;8.80;92.30;;;;;;5065131;28;20620;-37
2021/03/18 12:35:48;;;;;;;17.15;4.18;;;8.80;92.20;;;;;;5065453;28;20028;-36
2021/03/18 12:38:14;;;;;;;16.30;3.40;;;8.80;91.80;;;;;;5065111;28;20361;-39
2021/03/18 12:40:40;;;;;;;17.63;3.50;;;8.90;90.40;;;;;;5064550;28;20032;-36
2021/03/18 12:43:06;;;;;;;13.60;3.15;;;8.90;91.10;;;;;;5065365;28;20094;-38
2021/03/18 12:45:32;;;;;;;12.38;3.38;;;8.90;91.30;;;;;;5063756;28;20468;-35
2021/03/18 12:47:59;;;;;;;15.10;3.50;;;8.90;91.10;;;;;;5065207;28;20416;-38
2021/03/18 12:50:25;;;;;;;21.27;5.45;;;9.00;90.90;;;;;;5064638;28;20680;-34
2021/03/18 12:52:50;;;;;;;17.77;4.82;;;8.90;90.90;;;;;;5062703;28;20051;-38
2021/03/18 12:55:16;;;;;;;19.90;3.72;;;9.00;91.10;;;;;;5060429;28;20116;-38
2021/03/18 12:57:43;;;;;;;18.88;4.32;;;9.00;91.20;;;;;;5065208;28;20032;-38
2021/03/18 13:00:10;;;;;;;12.75;3.53;;;9.00;90.70;;;;;;5064658;28;20056;-36
2021/03/18 13:02:36;;;;;;;14.95;4.53;;;9.10;90.90;;;;;;5064899;28;20028;-36
2021/03/18 13:05:03;;;;;;;15.68;4.18;;;9.10;91.00;;;;;;5064904;28;20048;-38
2021/03/18 13:07:28;;;;;;;17.88;3.53;;;9.20;90.90;;;;;;5064260;28;20107;-37